createdAt,value
2019-05-26T02:13:53.850Z,65.16
2019-05-26T02:14:53.839Z,65.39
2019-05-26T02:15:53.827Z,65.19
2019-05-26T02:16:53.870Z,65.19
2019-05-26T02:17:53.804Z,65.80
2019-05-26T02:18:53.793Z,65.90
2019-05-26T02:20:53.777Z,65.19
2019-05-26T02:21:53.761Z,64.88
2019-05-26T02:22:53.746Z,64.99
2019-05-26T02:23:53.732Z,65.19
2019-05-26T02:24:53.721Z,65.09
2019-05-26T02:25:53.712Z,65.29
2019-05-26T02:26:53.700Z,64.88
2019-05-26T02:27:53.690Z,65.19
2019-05-26T02:28:53.679Z,65.29
2019-05-26T02:29:53.665Z,65.29
2019-05-26T02:30:53.667Z,65.29
2019-05-26T02:31:53.641Z,65.60
2019-05-26T02:32:53.632Z,65.49
2019-05-26T02:33:53.624Z,64.99
2019-05-26T02:34:53.612Z,65.19
2019-05-26T02:35:53.602Z,65.29
2019-05-26T02:36:53.587Z,65.90
2019-05-26T02:37:53.573Z,65.29
2019-05-26T02:39:01.991Z,65.60
2019-05-26T02:40:18.033Z,65.60
2019-05-26T02:41:18.025Z,65.69
2019-05-26T02:42:18.012Z,65.69
2019-05-26T02:43:18.006Z,65.90
2019-05-26T02:44:17.986Z,65.93
2019-05-26T02:45:17.974Z,65.83
2019-05-26T02:46:17.971Z,66.10
2019-05-26T02:47:17.951Z,66.30
2019-05-26T02:48:17.939Z,66.54
2019-05-26T02:49:17.935Z,66.04
2019-05-26T02:50:17.926Z,65.69
2019-05-26T02:51:17.915Z,66.04
2019-05-26T02:52:17.895Z,66.30
2019-05-26T02:53:17.883Z,66.82
2019-05-26T02:54:17.876Z,66.41
2019-05-26T02:55:17.862Z,66.54
2019-05-26T02:56:17.859Z,66.10
2019-05-26T02:57:17.860Z,65.69
2019-05-26T02:58:17.898Z,66.44
2019-05-26T02:59:17.818Z,66.61
2019-05-26T03:00:17.814Z,66.82
2019-05-26T03:01:17.801Z,66.85
2019-05-26T03:02:17.782Z,66.44
2019-05-26T03:03:17.769Z,66.65
2019-05-26T03:04:17.760Z,66.65
2019-05-26T03:05:17.748Z,66.61
2019-05-26T03:06:17.737Z,66.85
2019-05-26T03:07:17.733Z,66.71
2019-05-26T03:08:17.727Z,66.82
2019-05-26T03:09:23.137Z,66.30
2019-05-26T03:10:18.729Z,66.41
2019-05-26T03:11:17.682Z,66.82
2019-05-26T03:12:17.681Z,66.61
2019-05-26T03:13:17.659Z,66.82
2019-05-26T03:14:17.649Z,66.61
2019-05-26T03:15:17.636Z,66.82
2019-05-26T03:16:17.629Z,66.21
2019-05-26T03:17:17.612Z,66.41
2019-05-26T03:18:17.603Z,66.51
2019-05-26T03:19:17.589Z,66.71
2019-05-26T03:20:17.607Z,66.71
2019-05-26T03:21:17.567Z,67.12
2019-05-26T03:22:17.555Z,67.32
2019-05-26T03:23:17.550Z,67.22
2019-05-26T03:24:17.530Z,66.95
2019-05-26T03:25:17.534Z,68.07
2019-05-26T03:26:17.508Z,67.76
2019-05-26T03:27:17.511Z,68.31
2019-05-26T03:28:17.497Z,68.61
2019-05-26T03:29:17.475Z,68.92
2019-05-26T03:30:17.468Z,68.64
2019-05-26T03:31:17.455Z,69.56
2019-05-26T03:32:17.445Z,69.56
2019-05-26T03:33:17.429Z,69.45
2019-05-26T03:34:17.449Z,69.49
2019-05-26T03:35:17.412Z,69.39
2019-05-26T03:36:17.393Z,69.59
2019-05-26T03:37:17.384Z,69.69
2019-05-26T03:38:17.371Z,70.41
2019-05-26T03:39:17.358Z,70.27
2019-05-26T03:40:17.348Z,70.37
2019-05-26T03:41:17.383Z,70.37
2019-05-26T03:42:17.330Z,71.08
2019-05-26T03:43:17.314Z,71.02
2019-05-26T03:44:17.326Z,70.30
2019-05-26T03:45:17.291Z,69.97
2019-05-26T03:46:17.453Z,69.97
2019-05-26T03:47:17.392Z,69.56
2019-05-26T03:48:17.259Z,69.53
2019-05-26T03:49:17.245Z,69.22
2019-05-26T03:50:17.237Z,68.92
2019-05-26T03:51:17.235Z,69.09
2019-05-26T03:52:17.229Z,69.09
2019-05-26T03:53:17.200Z,68.68
2019-05-26T03:54:17.190Z,68.78
2019-05-26T03:55:17.177Z,68.57
2019-05-26T03:56:17.165Z,68.40
2019-05-26T03:57:17.155Z,68.61
2019-05-26T03:58:17.149Z,68.51
2019-05-26T03:59:17.144Z,68.71
2019-05-26T04:00:17.120Z,68.71
2019-05-26T04:01:17.109Z,69.05
2019-05-26T04:02:17.110Z,69.56
2019-05-26T04:03:17.223Z,69.25
2019-05-26T04:04:17.075Z,69.97
2019-05-26T04:05:17.070Z,69.86
2019-05-26T04:06:17.056Z,69.86
2019-05-26T04:07:17.044Z,69.76
2019-05-26T04:08:17.034Z,69.66
2019-05-26T04:09:17.022Z,69.66
2019-05-26T04:10:17.012Z,69.53
2019-05-26T04:11:17.000Z,69.42
2019-05-26T04:12:16.992Z,68.81
2019-05-26T04:13:16.975Z,68.92
2019-05-26T04:14:16.961Z,68.88
2019-05-26T04:15:16.953Z,68.57
2019-05-26T04:16:16.945Z,68.13
2019-05-26T04:17:16.929Z,68.24
2019-05-26T04:18:16.916Z,68.24
2019-05-26T04:19:16.907Z,68.24
2019-05-26T04:20:16.905Z,68.13
2019-05-26T04:21:16.888Z,67.83
2019-05-26T04:22:16.872Z,67.96
2019-05-26T04:23:16.859Z,67.96
2019-05-26T04:24:16.851Z,68.37
2019-05-26T04:25:16.859Z,67.93
2019-05-26T04:26:16.831Z,67.43
2019-05-26T04:27:16.818Z,67.43
2019-05-26T04:28:16.805Z,67.32
2019-05-26T04:29:16.793Z,67.32
2019-05-26T04:30:16.790Z,67.73
2019-05-26T04:31:16.773Z,67.73
2019-05-26T04:32:16.768Z,68.37
2019-05-26T04:33:16.750Z,68.17
2019-05-26T04:34:16.738Z,68.27
2019-05-26T04:35:16.728Z,68.71
2019-05-26T04:36:16.717Z,68.71
2019-05-26T04:37:16.710Z,68.88
2019-05-26T04:38:16.693Z,68.17
2019-05-26T04:39:16.683Z,68.27
2019-05-26T04:40:26.587Z,67.93
2019-05-26T04:41:17.680Z,67.73
2019-05-26T04:42:16.669Z,67.63
2019-05-26T04:43:16.650Z,67.93
2019-05-26T04:44:16.625Z,67.87
2019-05-26T04:45:16.614Z,68.17
2019-05-26T04:46:16.605Z,68.48
2019-05-26T04:47:16.592Z,68.34
2019-05-26T04:48:16.582Z,67.83
2019-05-26T04:49:16.577Z,67.93
2019-05-26T04:50:16.578Z,67.93
2019-05-26T04:51:16.561Z,67.73
2019-05-26T04:52:16.538Z,67.63
2019-05-26T04:53:16.525Z,67.73
2019-05-26T04:54:16.519Z,67.43
2019-05-26T04:55:16.507Z,67.49
2019-05-26T04:56:16.498Z,67.22
2019-05-26T04:57:16.482Z,67.29
2019-05-26T04:58:16.472Z,67.19
2019-05-26T04:59:16.463Z,66.68
2019-05-26T05:00:16.452Z,66.99
2019-05-26T05:01:16.437Z,66.27
2019-05-26T05:02:16.424Z,66.65
2019-05-26T05:03:16.433Z,65.71
2019-05-26T05:04:16.408Z,65.06
2019-05-26T05:05:16.396Z,64.56
2019-05-26T05:06:16.382Z,64.63
2019-05-26T05:07:16.389Z,64.22
2019-05-26T05:08:16.360Z,63.28
2019-05-26T05:09:16.349Z,62.75
2019-05-26T05:10:16.336Z,62.51
2019-05-26T05:11:16.331Z,62.21
2019-05-26T05:12:16.322Z,62.41
2019-05-26T05:13:16.303Z,62.51
2019-05-26T05:14:16.294Z,61.87
2019-05-26T05:15:16.283Z,61.37
2019-05-26T05:16:16.272Z,61.07
2019-05-26T05:17:16.266Z,60.22
2019-05-26T05:18:16.258Z,60.46
2019-05-26T05:19:16.236Z,60.73
2019-05-26T05:20:16.231Z,60.93
2019-05-26T05:21:16.219Z,60.70
2019-05-26T05:22:16.202Z,60.02
2019-05-26T05:23:16.192Z,60.93
2019-05-26T05:24:16.189Z,61.13
2019-05-26T05:25:16.169Z,60.73
2019-05-26T05:26:16.159Z,61.04
2019-05-26T05:27:16.151Z,60.40
2019-05-26T05:28:16.142Z,59.59
2019-05-26T05:29:16.130Z,58.83
2019-05-26T05:30:16.124Z,58.39
2019-05-26T05:31:16.102Z,57.26
2019-05-26T05:32:16.090Z,55.92
2019-05-26T05:33:16.094Z,56.22
2019-05-26T05:34:16.074Z,56.85
2019-05-26T05:35:16.057Z,56.98
2019-05-26T05:36:16.048Z,57.36
2019-05-26T05:37:16.450Z,56.62
2019-05-26T05:38:16.027Z,56.12
2019-05-26T05:39:16.013Z,56.19
2019-05-26T05:40:16.004Z,55.66
2019-05-26T05:41:15.996Z,55.36
2019-05-26T05:42:15.981Z,54.58
2019-05-26T05:43:15.972Z,54.98
2019-05-26T05:44:15.961Z,56.75
2019-05-26T05:45:15.952Z,56.12
2019-05-26T05:46:15.936Z,56.02
2019-05-26T05:47:15.928Z,56.12
2019-05-26T05:48:15.949Z,56.02
2019-05-26T05:49:15.904Z,55.89
2019-05-26T05:50:15.896Z,55.79
2019-05-26T05:51:15.886Z,55.05
2019-05-26T05:52:15.874Z,54.85
2019-05-26T05:53:15.861Z,54.85
2019-05-26T05:54:15.855Z,55.49
2019-05-26T05:55:15.846Z,56.12
2019-05-26T05:56:15.831Z,55.92
2019-05-26T05:57:15.822Z,55.92
2019-05-26T05:58:15.809Z,55.79
2019-05-26T05:59:15.803Z,55.38
2019-05-26T06:00:15.790Z,55.56
2019-05-26T06:01:15.774Z,54.83
2019-05-26T06:02:15.762Z,53.87
2019-05-26T06:03:18.591Z,53.11
2019-05-26T06:04:15.740Z,51.88
2019-05-26T06:05:15.731Z,52.53
2019-05-26T06:06:15.717Z,52.99
2019-05-26T06:07:15.712Z,53.60
2019-05-26T06:08:15.694Z,53.92
2019-05-26T06:09:15.690Z,54.02
2019-05-26T06:10:15.678Z,54.76
2019-05-26T06:11:17.293Z,54.55
2019-05-26T06:12:15.656Z,54.63
2019-05-26T06:13:15.641Z,53.80
2019-05-26T06:14:15.627Z,54.10
2019-05-26T06:15:17.153Z,53.77
2019-05-26T06:16:15.605Z,52.84
2019-05-26T06:17:15.601Z,52.84
2019-05-26T06:18:15.590Z,52.64
2019-05-26T06:19:15.599Z,53.17
2019-05-26T06:20:15.599Z,52.74
2019-05-26T06:21:15.561Z,52.61
2019-05-26T06:22:15.543Z,51.70
2019-05-26T06:23:15.547Z,51.11
2019-05-26T06:24:15.558Z,51.58
2019-05-26T06:25:15.552Z,50.73
2019-05-26T06:26:15.495Z,49.76
2019-05-26T06:27:15.483Z,48.63
2019-05-26T06:28:15.471Z,47.40
2019-05-26T06:29:15.460Z,48.25
2019-05-26T06:30:15.446Z,49.18
2019-05-26T06:31:15.442Z,48.98
2019-05-26T06:32:15.799Z,49.18
2019-05-26T06:33:15.421Z,48.98
2019-05-26T06:34:15.408Z,48.52
2019-05-26T06:35:15.397Z,47.00
2019-05-26T06:36:15.382Z,47.93
2019-05-26T06:37:15.377Z,47.75
2019-05-26T06:38:15.362Z,48.57
2019-05-26T06:39:15.349Z,48.87
2019-05-26T06:40:15.338Z,48.87
2019-05-26T06:41:30.421Z,48.20
2019-05-26T06:42:39.795Z,46.13
2019-05-26T06:43:39.785Z,44.89
2019-05-26T06:44:52.996Z,44.29
2019-05-26T06:45:40.812Z,44.77
2019-05-26T06:46:39.752Z,44.04
2019-05-26T06:47:39.783Z,42.91
2019-05-26T06:48:39.728Z,41.69
2019-05-26T06:49:39.723Z,42.15
2019-05-26T06:50:39.707Z,40.61
2019-05-26T06:51:39.710Z,40.38
2019-05-26T06:52:39.689Z,39.16
2019-05-26T06:53:39.675Z,38.83
2019-05-26T06:54:39.665Z,38.76
2019-05-26T06:55:39.651Z,40.35
2019-05-26T06:56:39.637Z,41.33
2019-05-26T06:57:39.635Z,43.27
2019-05-26T06:58:39.615Z,42.97
2019-05-26T06:59:39.608Z,43.81
2019-05-26T07:00:39.595Z,43.81
2019-05-26T07:01:39.588Z,44.33
2019-05-26T07:02:39.571Z,44.63
2019-05-26T07:03:39.561Z,44.71
2019-05-26T07:04:39.548Z,44.31
2019-05-26T07:05:39.547Z,43.51
2019-05-26T07:06:39.533Z,44.43
2019-05-26T07:07:39.519Z,44.97
2019-05-26T07:08:39.517Z,45.15
2019-05-26T07:09:39.496Z,44.53
2019-05-26T07:10:39.487Z,43.51
2019-05-26T07:11:53.987Z,44.19
2019-05-26T07:13:03.951Z,42.11
2019-05-26T07:14:03.930Z,40.63
2019-05-26T07:15:03.927Z,40.52
2019-05-26T07:16:03.918Z,39.40
2019-05-26T07:17:03.905Z,40.46
2019-05-26T07:18:03.886Z,40.95
2019-05-26T07:19:03.878Z,40.53
2019-05-26T07:20:03.866Z,40.44
2019-05-26T07:21:03.854Z,39.50
2019-05-26T07:22:03.845Z,38.84
2019-05-26T07:23:05.379Z,38.00
2019-05-26T07:24:03.821Z,36.48
2019-05-26T07:25:03.810Z,35.94
2019-05-26T07:26:03.799Z,35.85
2019-05-26T07:27:03.787Z,36.21
2019-05-26T07:28:03.777Z,37.99
2019-05-26T07:29:03.773Z,39.22
2019-05-26T07:30:03.752Z,39.95
2019-05-26T07:31:03.744Z,40.89
2019-05-26T07:32:03.731Z,41.51
2019-05-26T07:33:03.733Z,41.71
2019-05-26T07:34:03.706Z,41.49
2019-05-26T07:35:03.696Z,40.63
2019-05-26T07:36:03.693Z,39.80
2019-05-26T07:37:03.676Z,38.69
2019-05-26T07:38:03.672Z,38.55
2019-05-26T07:39:03.654Z,38.50
2019-05-26T07:40:03.647Z,40.38
2019-05-26T07:41:03.628Z,41.31
2019-05-26T07:42:09.975Z,41.33
2019-05-26T07:43:28.388Z,41.83
2019-05-26T07:44:28.072Z,41.95
2019-05-26T07:45:28.056Z,41.93
2019-05-26T07:46:28.050Z,41.85
2019-05-26T07:47:28.034Z,41.93
2019-05-26T07:48:28.025Z,42.75
2019-05-26T07:49:28.012Z,42.75
2019-05-26T07:50:28.008Z,41.65
2019-05-26T07:51:27.990Z,43.17
2019-05-26T07:52:27.979Z,43.17
2019-05-26T07:53:27.971Z,42.65
2019-05-26T07:54:27.958Z,42.47
2019-05-26T07:55:27.950Z,42.27
2019-05-26T07:56:27.945Z,41.67
2019-05-26T07:57:27.921Z,42.89
2019-05-26T07:58:27.913Z,42.89
2019-05-26T07:59:27.906Z,43.09
2019-05-26T08:00:27.889Z,42.79
2019-05-26T08:01:35.573Z,42.25
2019-05-26T08:02:28.888Z,41.41
2019-05-26T08:03:27.855Z,41.41
2019-05-26T08:04:27.848Z,41.67
2019-05-26T08:05:27.934Z,40.44
2019-05-26T08:06:27.820Z,39.80
2019-05-26T08:07:27.811Z,39.28
2019-05-26T08:08:27.802Z,38.15
2019-05-26T08:09:27.791Z,37.95
2019-05-26T08:10:27.777Z,38.27
2019-05-26T08:11:27.775Z,39.34
2019-05-26T08:12:30.597Z,41.21
2019-05-26T08:13:27.743Z,42.21
2019-05-26T08:14:27.739Z,42.01
2019-05-26T08:15:27.720Z,42.01
2019-05-26T08:16:27.720Z,41.73
2019-05-26T08:17:27.705Z,42.23
2019-05-26T08:18:27.687Z,41.91
2019-05-26T08:19:27.673Z,41.41
2019-05-26T08:20:27.665Z,42.83
2019-05-26T08:21:27.657Z,42.53
2019-05-26T08:22:27.641Z,41.39
2019-05-26T08:23:27.630Z,41.27
2019-05-26T08:24:27.619Z,41.15
2019-05-26T08:25:27.606Z,40.33
2019-05-26T08:26:27.598Z,39.75
2019-05-26T08:27:27.590Z,40.67
2019-05-26T08:28:27.579Z,41.41
2019-05-26T08:29:27.561Z,41.95
2019-05-26T08:30:27.552Z,41.41
2019-05-26T08:31:27.537Z,41.37
2019-05-26T08:32:27.530Z,40.14
2019-05-26T08:33:27.515Z,39.68
2019-05-26T08:34:27.509Z,38.45
2019-05-26T08:35:27.494Z,37.22
2019-05-26T08:36:27.480Z,37.09
2019-05-26T08:37:27.472Z,36.36
2019-05-26T08:38:27.461Z,36.51
2019-05-26T08:39:27.452Z,38.15
2019-05-26T08:40:27.439Z,38.70
2019-05-26T08:41:27.426Z,39.20
2019-05-26T08:42:42.059Z,38.50
2019-05-26T08:43:51.885Z,38.70
2019-05-26T08:44:51.876Z,38.61
2019-05-26T08:45:51.863Z,38.80
2019-05-26T08:46:51.854Z,39.24
2019-05-26T08:47:51.855Z,39.00
2019-05-26T08:48:51.831Z,38.69
2019-05-26T08:49:51.823Z,38.27
2019-05-26T08:50:51.810Z,37.26
2019-05-26T08:51:51.800Z,37.65
2019-05-26T08:52:51.787Z,37.14
2019-05-26T08:53:51.777Z,37.03
2019-05-26T08:54:51.770Z,36.01
2019-05-26T08:55:51.759Z,35.98
2019-05-26T08:56:51.742Z,35.90
2019-05-26T08:57:51.733Z,36.52
2019-05-26T08:58:51.721Z,37.18
2019-05-26T08:59:51.709Z,37.59
2019-05-26T09:00:51.709Z,38.01
2019-05-26T09:01:51.695Z,38.40
2019-05-26T09:02:51.677Z,38.40
2019-05-26T09:03:51.663Z,39.12
2019-05-26T09:04:51.657Z,37.89
2019-05-26T09:05:51.641Z,38.19
2019-05-26T09:06:51.636Z,36.54
2019-05-26T09:07:51.621Z,36.49
2019-05-26T09:08:51.613Z,35.02
2019-05-26T09:09:51.602Z,34.29
2019-05-26T09:10:51.587Z,32.56
2019-05-26T09:11:51.578Z,32.83
2019-05-26T09:13:00.804Z,31.62
2019-05-26T09:13:52.576Z,31.22
2019-05-26T09:14:51.547Z,30.90
2019-05-26T09:15:51.533Z,30.78
2019-05-26T09:16:51.523Z,30.47
2019-05-26T09:17:51.521Z,29.87
2019-05-26T09:18:51.502Z,30.24
2019-05-26T09:19:51.490Z,30.45
2019-05-26T09:20:51.483Z,29.57
2019-05-26T09:21:51.473Z,30.40
2019-05-26T09:22:51.469Z,32.17
2019-05-26T09:23:51.452Z,33.52
2019-05-26T09:24:51.443Z,32.83
2019-05-26T09:25:51.431Z,34.03
2019-05-26T09:26:51.418Z,35.30
2019-05-26T09:27:51.409Z,35.42
2019-05-26T09:28:51.401Z,36.03
2019-05-26T09:29:51.383Z,35.62
2019-05-26T09:30:51.371Z,36.01
2019-05-26T09:31:51.361Z,35.99
2019-05-26T09:32:51.362Z,36.51
2019-05-26T09:33:51.346Z,35.91
2019-05-26T09:34:51.331Z,34.79
2019-05-26T09:35:51.317Z,34.85
2019-05-26T09:36:51.306Z,34.21
2019-05-26T09:37:51.301Z,33.95
2019-05-26T09:38:51.308Z,34.74
2019-05-26T09:39:51.287Z,34.01
2019-05-26T09:40:51.277Z,33.50
2019-05-26T09:41:51.275Z,33.27
2019-05-26T09:42:51.280Z,32.14
2019-05-26T09:43:51.284Z,31.22
2019-05-26T09:44:51.229Z,30.90
2019-05-26T09:45:51.228Z,30.31
2019-05-26T09:46:51.232Z,30.27
2019-05-26T09:47:51.258Z,29.98
2019-05-26T09:48:51.237Z,30.19
2019-05-26T09:49:51.176Z,29.98
2019-05-26T09:50:51.154Z,29.96
2019-05-26T09:51:51.149Z,29.26
2019-05-26T09:52:51.139Z,29.76
2019-05-26T09:54:01.226Z,30.04
2019-05-26T09:55:15.589Z,28.35
2019-05-26T09:56:15.579Z,28.44
2019-05-26T09:57:15.565Z,27.05
2019-05-26T09:58:15.554Z,27.53
2019-05-26T09:59:15.544Z,27.23
2019-05-26T10:00:16.327Z,27.82
2019-05-26T10:01:15.528Z,27.72
2019-05-26T10:02:15.511Z,28.16
2019-05-26T10:03:15.502Z,30.22
2019-05-26T10:04:15.489Z,31.29
2019-05-26T10:05:15.485Z,32.73
2019-05-26T10:06:15.468Z,33.25
2019-05-26T10:07:16.108Z,32.94
2019-05-26T10:08:15.449Z,32.61
2019-05-26T10:09:15.436Z,31.96
2019-05-26T10:10:15.426Z,31.12
2019-05-26T10:11:15.413Z,30.71
2019-05-26T10:12:15.414Z,30.59
2019-05-26T10:13:30.603Z,29.58
2019-05-26T10:14:16.402Z,29.96
2019-05-26T10:15:15.371Z,29.66
2019-05-26T10:16:15.373Z,28.58
2019-05-26T10:17:15.354Z,29.38
2019-05-26T10:18:15.347Z,29.07
2019-05-26T10:19:15.333Z,28.68
2019-05-26T10:20:15.318Z,29.47
2019-05-26T10:21:15.311Z,29.16
2019-05-26T10:22:15.292Z,28.48
2019-05-26T10:23:15.288Z,29.37
2019-05-26T10:24:15.275Z,29.37
2019-05-26T10:25:15.260Z,29.64
2019-05-26T10:26:15.250Z,28.46
2019-05-26T10:27:15.237Z,28.25
2019-05-26T10:28:15.229Z,28.74
2019-05-26T10:29:15.216Z,29.92
2019-05-26T10:30:15.206Z,28.94
2019-05-26T10:31:15.195Z,29.29
2019-05-26T10:32:15.192Z,30.48
2019-05-26T10:33:15.172Z,32.63
2019-05-26T10:34:15.170Z,34.22
2019-05-26T10:35:15.152Z,34.62
2019-05-26T10:36:15.139Z,33.80
2019-05-26T10:37:15.138Z,33.57
2019-05-26T10:38:15.117Z,33.36
2019-05-26T10:39:15.108Z,33.25
2019-05-26T10:40:15.105Z,31.75
2019-05-26T10:41:15.093Z,31.96
2019-05-26T10:42:15.077Z,31.75
2019-05-26T10:43:15.067Z,31.63
2019-05-26T10:44:15.056Z,30.53
2019-05-26T10:45:15.043Z,30.11
2019-05-26T10:46:15.034Z,30.21
2019-05-26T10:47:15.021Z,30.80
2019-05-26T10:48:15.009Z,30.09
2019-05-26T10:49:15.000Z,29.29
2019-05-26T10:50:14.989Z,29.08
2019-05-26T10:51:14.981Z,28.90
2019-05-26T10:52:14.966Z,29.99
2019-05-26T10:53:14.958Z,30.01
2019-05-26T10:54:14.944Z,30.21
2019-05-26T10:55:14.937Z,30.50
2019-05-26T10:56:14.923Z,29.90
2019-05-26T10:57:14.912Z,29.30
2019-05-26T10:58:14.901Z,29.39
2019-05-26T10:59:14.889Z,29.16
2019-05-26T11:00:14.880Z,28.68
2019-05-26T11:01:14.868Z,29.85
2019-05-26T11:02:14.873Z,29.95
2019-05-26T11:03:14.848Z,28.98
2019-05-26T11:04:14.837Z,29.47
2019-05-26T11:05:14.832Z,29.90
2019-05-26T11:06:14.812Z,30.09
2019-05-26T11:07:14.807Z,30.09
2019-05-26T11:08:14.795Z,29.83
2019-05-26T11:09:14.779Z,30.74
2019-05-26T11:10:14.773Z,31.84
2019-05-26T11:11:14.759Z,30.35
2019-05-26T11:12:14.762Z,30.73
2019-05-26T11:13:14.738Z,30.53
2019-05-26T11:14:14.728Z,31.01
2019-05-26T11:15:14.716Z,30.31
2019-05-26T11:16:14.705Z,30.09
2019-05-26T11:17:14.698Z,29.60
2019-05-26T11:18:14.683Z,29.10
2019-05-26T11:19:14.676Z,29.98
2019-05-26T11:20:14.660Z,29.79
2019-05-26T11:21:14.649Z,29.29
2019-05-26T11:22:14.638Z,29.67
2019-05-26T11:23:14.631Z,29.05
2019-05-26T11:24:14.617Z,28.64
2019-05-26T11:25:14.617Z,28.46
2019-05-26T11:26:14.595Z,28.57
2019-05-26T11:27:15.119Z,29.95
2019-05-26T11:28:14.575Z,29.18
2019-05-26T11:29:14.563Z,29.96
2019-05-26T11:30:14.591Z,29.28
2019-05-26T11:31:14.548Z,29.38
2019-05-26T11:32:14.537Z,29.47
2019-05-26T11:33:14.519Z,28.66
2019-05-26T11:34:14.549Z,28.46
2019-05-26T11:35:14.498Z,28.45
2019-05-26T11:36:14.485Z,27.86
2019-05-26T11:37:14.487Z,27.96
2019-05-26T11:38:14.469Z,27.95
2019-05-26T11:39:14.454Z,28.13
2019-05-26T11:40:14.442Z,28.44
2019-05-26T11:41:14.434Z,28.07
2019-05-26T11:42:14.659Z,28.97
2019-05-26T11:43:17.011Z,28.79
2019-05-26T11:44:17.851Z,28.86
2019-05-26T11:45:14.391Z,28.73
2019-05-26T11:46:16.539Z,27.54
2019-05-26T11:47:14.373Z,27.63
2019-05-26T11:48:14.365Z,27.33
2019-05-26T11:49:14.354Z,27.54
2019-05-26T11:50:14.351Z,28.33
2019-05-26T11:51:14.327Z,27.54
2019-05-26T11:52:14.317Z,28.34
2019-05-26T11:53:14.308Z,28.24
2019-05-26T11:54:14.298Z,27.86
2019-05-26T11:55:14.294Z,27.97
2019-05-26T11:56:14.277Z,27.88
2019-05-26T11:57:14.263Z,28.07
2019-05-26T11:58:14.252Z,28.58
2019-05-26T11:59:14.247Z,28.57
2019-05-26T12:00:14.348Z,28.17
2019-05-26T12:01:14.219Z,28.17
2019-05-26T12:02:14.210Z,28.27
2019-05-26T12:03:14.197Z,29.66
2019-05-26T12:04:14.205Z,28.77
2019-05-26T12:05:17.539Z,28.88
2019-05-26T12:06:14.164Z,28.88
2019-05-26T12:07:14.156Z,29.38
2019-05-26T12:08:14.142Z,29.58
2019-05-26T12:09:14.147Z,29.49
2019-05-26T12:10:14.616Z,29.80
2019-05-26T12:11:14.110Z,30.09
2019-05-26T12:12:14.100Z,29.99
2019-05-26T12:13:14.089Z,29.99
2019-05-26T12:14:14.079Z,30.18
2019-05-26T12:15:14.100Z,29.90
2019-05-26T12:16:14.055Z,29.58
2019-05-26T12:17:14.049Z,29.98
2019-05-26T12:18:14.048Z,29.51
2019-05-26T12:19:14.022Z,29.19
2019-05-26T12:20:14.017Z,29.19
2019-05-26T12:21:14.002Z,29.10
2019-05-26T12:22:14.009Z,29.39
2019-05-26T12:23:13.980Z,29.39
2019-05-26T12:24:13.974Z,30.18
2019-05-26T12:25:13.976Z,29.98
2019-05-26T12:26:13.947Z,29.79
2019-05-26T12:27:13.936Z,30.19
2019-05-26T12:28:13.933Z,30.09
2019-05-26T12:29:13.919Z,30.59
2019-05-26T12:30:13.904Z,30.50
2019-05-26T12:31:13.897Z,30.29
2019-05-26T12:32:13.890Z,29.99
2019-05-26T12:33:13.922Z,30.49
2019-05-26T12:34:13.865Z,30.40
2019-05-26T12:35:13.854Z,30.70
2019-05-26T12:36:13.845Z,31.07
2019-05-26T12:37:13.830Z,31.92
2019-05-26T12:38:13.821Z,33.44
2019-05-26T12:39:13.810Z,34.66
2019-05-26T12:40:13.808Z,34.56
2019-05-26T12:41:13.788Z,34.44
2019-05-26T12:42:16.892Z,34.22
2019-05-26T12:43:13.772Z,33.89
2019-05-26T12:44:13.755Z,32.70
2019-05-26T12:45:13.743Z,32.20
2019-05-26T12:46:13.734Z,32.42
2019-05-26T12:47:13.724Z,33.16
2019-05-26T12:48:13.721Z,33.75
2019-05-26T12:49:13.706Z,33.73
2019-05-26T12:50:13.700Z,32.63
2019-05-26T12:51:13.680Z,32.22
2019-05-26T12:52:13.683Z,31.90
2019-05-26T12:53:13.668Z,31.89
2019-05-26T12:54:13.648Z,31.56
2019-05-26T12:55:13.640Z,31.66
2019-05-26T12:56:13.671Z,32.15
2019-05-26T12:57:13.614Z,31.94
2019-05-26T12:58:13.625Z,30.85
2019-05-26T12:59:13.601Z,30.94
2019-05-26T13:00:13.585Z,30.73
2019-05-26T13:01:13.576Z,29.84
2019-05-26T13:02:13.565Z,30.93
2019-05-26T13:03:13.553Z,30.63
2019-05-26T13:04:13.546Z,30.12
2019-05-26T13:05:13.530Z,30.12
2019-05-26T13:06:13.523Z,29.93
2019-05-26T13:07:13.519Z,30.35
2019-05-26T13:08:13.504Z,30.94
2019-05-26T13:09:13.490Z,30.74
2019-05-26T13:10:13.475Z,30.04
2019-05-26T13:11:13.468Z,30.35
2019-05-26T13:12:13.456Z,30.69
2019-05-26T13:13:13.449Z,31.72
2019-05-26T13:14:13.445Z,33.04
2019-05-26T13:15:13.428Z,32.56
2019-05-26T13:16:13.410Z,33.27
2019-05-26T13:17:13.402Z,34.08
2019-05-26T13:18:13.393Z,34.47
2019-05-26T13:19:13.378Z,34.99
2019-05-26T13:20:13.369Z,34.51
2019-05-26T13:21:13.359Z,34.61
2019-05-26T13:22:13.347Z,34.29
2019-05-26T13:23:13.342Z,33.48
2019-05-26T13:24:13.338Z,32.86
2019-05-26T13:25:13.318Z,33.44
2019-05-26T13:26:13.303Z,32.33
2019-05-26T13:27:13.294Z,31.92
2019-05-26T13:28:13.281Z,31.81
2019-05-26T13:29:13.278Z,31.90
2019-05-26T13:30:13.288Z,31.79
2019-05-26T13:31:13.251Z,31.29
2019-05-26T13:32:13.239Z,31.48
2019-05-26T13:33:13.233Z,30.88
2019-05-26T13:34:13.219Z,30.49
2019-05-26T13:35:13.208Z,31.79
2019-05-26T13:36:13.195Z,31.79
2019-05-26T13:37:13.185Z,31.99
2019-05-26T13:38:13.184Z,32.18
2019-05-26T13:39:13.171Z,31.99
2019-05-26T13:40:13.155Z,32.30
2019-05-26T13:41:13.149Z,33.14
2019-05-26T13:42:13.148Z,32.97
2019-05-26T13:43:13.121Z,33.37
2019-05-26T13:44:13.113Z,33.96
2019-05-26T13:45:22.489Z,34.14
2019-05-26T13:46:14.106Z,33.04
2019-05-26T13:47:25.394Z,33.52
2019-05-26T13:48:14.086Z,32.73
2019-05-26T13:49:13.074Z,32.81
2019-05-26T13:50:13.047Z,31.90
2019-05-26T13:51:13.037Z,32.78
2019-05-26T13:52:13.039Z,32.28
2019-05-26T13:53:13.018Z,31.79
2019-05-26T13:54:13.001Z,32.27
2019-05-26T13:55:12.995Z,31.97
2019-05-26T13:56:12.985Z,32.17
2019-05-26T13:57:12.972Z,32.45
2019-05-26T13:58:12.960Z,31.76
2019-05-26T13:59:12.946Z,31.96
2019-05-26T14:00:13.000Z,30.85
2019-05-26T14:01:12.926Z,30.85
2019-05-26T14:02:12.937Z,30.48
2019-05-26T14:03:12.943Z,30.87
2019-05-26T14:04:12.892Z,30.56
2019-05-26T14:05:12.879Z,30.87
2019-05-26T14:06:12.870Z,30.78
2019-05-26T14:07:12.863Z,30.38
2019-05-26T14:08:12.850Z,30.39
2019-05-26T14:09:12.837Z,30.01
2019-05-26T14:10:12.827Z,31.00
2019-05-26T14:11:12.816Z,30.90
2019-05-26T14:12:12.804Z,30.81
2019-05-26T14:13:12.796Z,30.81
2019-05-26T14:14:12.786Z,30.90
2019-05-26T14:15:12.779Z,30.88
2019-05-26T14:16:12.765Z,30.69
2019-05-26T14:17:12.752Z,30.29
2019-05-26T14:18:12.739Z,30.49
2019-05-26T14:19:12.727Z,29.90
2019-05-26T14:20:12.715Z,30.79
2019-05-26T14:21:12.704Z,31.10
2019-05-26T14:22:12.693Z,30.60
2019-05-26T14:23:12.687Z,31.01
2019-05-26T14:24:12.672Z,30.62
2019-05-26T14:25:15.619Z,31.12
2019-05-26T14:26:12.658Z,30.93
2019-05-26T14:27:12.639Z,32.02
2019-05-26T14:28:12.628Z,31.72
2019-05-26T14:29:12.620Z,32.02
2019-05-26T14:30:12.607Z,32.02
2019-05-26T14:31:12.600Z,32.02
2019-05-26T14:32:12.588Z,32.22
2019-05-26T14:33:12.577Z,31.72
2019-05-26T14:34:12.569Z,32.42
2019-05-26T14:35:12.551Z,32.00
2019-05-26T14:36:12.539Z,32.20
2019-05-26T14:37:12.532Z,31.99
2019-05-26T14:38:12.520Z,31.69
2019-05-26T14:39:12.505Z,32.00
2019-05-26T14:40:12.498Z,31.81
2019-05-26T14:41:12.483Z,32.50
2019-05-26T14:42:12.477Z,32.10
2019-05-26T14:43:12.462Z,31.81
2019-05-26T14:44:12.451Z,31.90
2019-05-26T14:45:12.443Z,31.89
2019-05-26T14:46:12.432Z,31.59
2019-05-26T14:47:12.418Z,32.09
2019-05-26T14:48:12.414Z,31.79
2019-05-26T14:49:12.395Z,31.69
2019-05-26T14:50:12.386Z,31.69
2019-05-26T14:51:12.373Z,30.81
2019-05-26T14:52:12.370Z,31.69
2019-05-26T14:53:12.356Z,31.89
2019-05-26T14:54:12.353Z,31.81
2019-05-26T14:55:12.334Z,31.90
2019-05-26T14:56:12.331Z,32.00
2019-05-26T14:57:12.335Z,31.82
2019-05-26T14:58:16.039Z,32.22
2019-05-26T14:59:12.292Z,32.20
2019-05-26T15:00:12.284Z,32.42
2019-05-26T15:01:12.285Z,32.02
2019-05-26T15:02:12.293Z,31.92
2019-05-26T15:03:12.292Z,32.71
2019-05-26T15:04:12.233Z,32.70
2019-05-26T15:05:12.218Z,32.20
2019-05-26T15:06:12.209Z,32.10
2019-05-26T15:07:12.203Z,32.20
2019-05-26T15:08:12.188Z,32.89
2019-05-26T15:09:24.723Z,32.99